createdAt,value
2022-12-19T00:01:35.015Z,101818.31
2022-12-19T00:04:08.280Z,101811.53
2022-12-19T00:06:38.078Z,101804.75
2022-12-19T00:09:10.422Z,101808.84
2022-12-19T00:11:38.829Z,101802.50
2022-12-19T00:14:06.977Z,101807.25
2022-12-19T00:16:33.847Z,101814.19
2022-12-19T00:19:01.453Z,101815.59
2022-12-19T00:21:34.734Z,101808.84
2022-12-19T00:24:10.463Z,101799.19
2022-12-19T00:26:47.852Z,101787.00
2022-12-19T00:29:16.791Z,101794.75
2022-12-19T00:31:43.660Z,101791.88
2022-12-19T00:34:10.471Z,101798.44
2022-12-19T00:36:37.493Z,101803.03
2022-12-19T00:39:07.998Z,101797.78
2022-12-19T00:41:37.072Z,101795.97
2022-12-19T00:44:06.205Z,101792.31
2022-12-19T00:46:34.957Z,101782.81
2022-12-19T00:49:02.089Z,101789.59
2022-12-19T00:51:30.682Z,101790.72
2022-12-19T00:53:58.424Z,101793.09
2022-12-19T00:56:30.596Z,101797.47
2022-12-19T00:58:57.977Z,101799.63
2022-12-19T01:01:27.797Z,101803.03
2022-12-19T01:06:41.932Z,101794.50
2022-12-19T01:09:11.399Z,101791.03
2022-12-19T01:11:57.240Z,101788.91
2022-12-19T01:14:24.048Z,101787.34
2022-12-19T01:16:51.810Z,101780.09
2022-12-19T01:19:18.875Z,101772.69
2022-12-19T01:21:45.493Z,101771.94
2022-12-19T01:24:12.533Z,101765.03
2022-12-19T01:26:40.339Z,101758.09
2022-12-19T01:29:07.192Z,101748.50
2022-12-19T01:31:34.144Z,101742.34
2022-12-19T01:34:01.478Z,101727.63
2022-12-19T01:36:28.646Z,101721.78
2022-12-19T01:38:58.493Z,101712.34
2022-12-19T01:41:25.474Z,101714.94
2022-12-19T01:44:01.415Z,101721.88
2022-12-19T01:46:35.153Z,101710.53
2022-12-19T01:49:02.738Z,101698.69
2022-12-19T01:51:37.446Z,101692.69
2022-12-19T01:54:08.544Z,101682.50
2022-12-19T01:56:40.482Z,101684.69
2022-12-19T01:59:14.238Z,101677.56
2022-12-19T02:01:51.026Z,101681.00
2022-12-19T02:04:20.011Z,101690.81
2022-12-19T02:06:48.474Z,101666.53
2022-12-19T02:09:15.900Z,101663.97
2022-12-19T02:11:42.621Z,101657.66
2022-12-19T02:14:09.498Z,101666.94
2022-12-19T02:17:07.530Z,101670.72
2022-12-19T02:20:05.154Z,101665.19
2022-12-19T02:22:50.037Z,101667.03
2022-12-19T02:25:47.309Z,101663.91
2022-12-19T02:28:49.513Z,101659.13
2022-12-19T02:31:19.001Z,101641.44
2022-12-19T02:34:21.966Z,101626.13
2022-12-19T02:37:05.675Z,101642.16
2022-12-19T02:39:42.876Z,101638.72
2022-12-19T02:42:14.382Z,101644.72
2022-12-19T02:44:51.623Z,101634.34
2022-12-19T02:47:20.882Z,101621.75
2022-12-19T02:49:48.184Z,101623.59
2022-12-19T02:52:20.675Z,101608.75
2022-12-19T02:54:57.628Z,101605.31
2022-12-19T02:57:58.272Z,101603.81
2022-12-19T03:00:27.732Z,101601.25
2022-12-19T03:03:17.344Z,101610.88
2022-12-19T03:06:09.179Z,101606.69
2022-12-19T03:08:46.922Z,101603.88
2022-12-19T03:11:15.001Z,101602.25
2022-12-19T03:13:48.443Z,101604.78
2022-12-19T03:16:15.560Z,101588.44
2022-12-19T03:18:42.891Z,101589.66
2022-12-19T03:21:17.146Z,101574.34
2022-12-19T03:23:45.906Z,101561.75
2022-12-19T03:26:19.882Z,101562.06
2022-12-19T03:29:09.387Z,101565.81
2022-12-19T03:31:38.534Z,101563.91
2022-12-19T03:34:13.477Z,101566.78
2022-12-19T03:36:46.931Z,101562.44
2022-12-19T03:39:14.743Z,101570.09
2022-12-19T03:42:02.218Z,101565.72
2022-12-19T03:44:33.840Z,101567.53
2022-12-19T03:47:13.463Z,101569.50
2022-12-19T03:49:40.429Z,101563.50
2022-12-19T03:52:12.767Z,101562.00
2022-12-19T03:54:44.198Z,101552.53
2022-12-19T03:57:19.592Z,101544.88
2022-12-19T04:00:00.455Z,101552.13
2022-12-19T04:02:28.333Z,101537.38
2022-12-19T04:05:01.816Z,101528.25
2022-12-19T04:07:28.618Z,101534.25
2022-12-19T04:09:58.183Z,101534.25
2022-12-19T04:12:30.604Z,101524.50
2022-12-19T04:14:57.380Z,101527.97
2022-12-19T04:17:39.585Z,101537.72
2022-12-19T04:20:12.619Z,101535.19
2022-12-19T04:22:45.485Z,101534.75
2022-12-19T04:25:16.305Z,101530.28
2022-12-19T04:27:53.875Z,101527.59
2022-12-19T04:30:20.789Z,101535.09
2022-12-19T04:32:49.916Z,101537.22
2022-12-19T04:35:16.874Z,101530.47
2022-12-19T04:37:43.667Z,101522.31
2022-12-19T04:40:10.990Z,101525.47
2022-12-19T04:42:37.620Z,101521.88
2022-12-19T04:45:05.739Z,101522.19
2022-12-19T04:47:32.895Z,101516.94
2022-12-19T04:49:59.499Z,101522.91
2022-12-19T04:52:26.126Z,101510.88
2022-12-19T04:54:52.715Z,101517.66
2022-12-19T04:57:19.428Z,101501.13
2022-12-19T04:59:46.023Z,101509.53
2022-12-19T05:02:12.881Z,101508.63
2022-12-19T05:04:39.540Z,101505.03
2022-12-19T05:07:06.112Z,101497.06
2022-12-19T05:09:32.676Z,101500.38
2022-12-19T05:11:59.284Z,101501.69
2022-12-19T05:14:26.316Z,101506.63
2022-12-19T05:16:55.995Z,101504.84
2022-12-19T05:19:27.319Z,101509.78
2022-12-19T05:21:54.103Z,101507.97
2022-12-19T05:24:21.602Z,101511.13
2022-12-19T05:26:49.298Z,101505.16
2022-12-19T05:29:16.452Z,101491.31
2022-12-19T05:31:43.551Z,101493.44
2022-12-19T05:34:10.185Z,101492.53
2022-12-19T05:36:36.854Z,101491.34
2022-12-19T05:39:03.517Z,101480.69
2022-12-19T05:41:30.217Z,101475.47
2022-12-19T05:43:56.846Z,101477.72
2022-12-19T05:46:24.702Z,101473.25
2022-12-19T05:48:51.727Z,101463.31
2022-12-19T05:51:19.861Z,101475.78
2022-12-19T05:53:46.555Z,101477.88
2022-12-19T05:56:16.575Z,101474.75
2022-12-19T05:58:43.836Z,101464.09
2022-12-19T06:01:22.247Z,101448.31
2022-12-19T06:03:49.395Z,101456.88
2022-12-19T06:06:19.104Z,101461.53
2022-12-19T06:08:45.793Z,101456.41
2022-12-19T06:11:14.135Z,101461.53
2022-12-19T06:13:42.289Z,101464.06
2022-12-19T06:16:13.491Z,101465.00
2022-12-19T06:18:44.852Z,101455.84
2022-12-19T06:21:19.107Z,101451.91
2022-12-19T06:23:46.424Z,101459.28
2022-12-19T06:26:18.967Z,101455.09
2022-12-19T06:28:47.128Z,101463.31
2022-12-19T06:31:14.533Z,101459.88
2022-12-19T06:33:41.826Z,101469.81
2022-12-19T06:36:21.383Z,101478.06
2022-12-19T06:38:49.800Z,101469.91
2022-12-19T06:41:36.028Z,101479.84
2022-12-19T06:44:06.218Z,101471.41
2022-12-19T06:46:33.716Z,101463.44
2022-12-19T06:49:01.331Z,101465.41
2022-12-19T06:51:28.401Z,101465.53
2022-12-19T06:53:55.644Z,101454.25
2022-12-19T06:56:22.856Z,101444.94
2022-12-19T06:58:50.635Z,101452.16
2022-12-19T07:01:27.904Z,101448.84
2022-12-19T07:03:55.295Z,101452.31
2022-12-19T07:06:23.393Z,101456.19
2022-12-19T07:08:50.214Z,101447.28
2022-12-19T07:11:16.884Z,101444.88
2022-12-19T07:13:43.933Z,101445.94
2022-12-19T07:16:10.622Z,101439.00
2022-12-19T07:18:39.981Z,101436.00
2022-12-19T07:21:09.267Z,101423.34
2022-12-19T07:23:36.143Z,101435.81
2022-12-19T07:26:03.216Z,101420.84
2022-12-19T07:28:29.818Z,101420.69
2022-12-19T07:30:56.395Z,101423.69
2022-12-19T07:33:22.975Z,101420.50
2022-12-19T07:35:49.677Z,101426.31
2022-12-19T07:38:16.455Z,101416.94
2022-12-19T07:40:43.062Z,101427.97
2022-12-19T07:43:09.978Z,101432.41
2022-12-19T07:45:38.501Z,101431.16
2022-12-19T07:48:06.523Z,101421.75
2022-12-19T07:50:33.324Z,101434.06
2022-12-19T07:52:59.984Z,101417.53
2022-12-19T07:55:26.963Z,101419.84
2022-12-19T07:57:54.001Z,101403.28
2022-12-19T08:00:21.670Z,101389.00
2022-12-19T08:02:48.741Z,101415.97
2022-12-19T08:05:15.483Z,101424.81
2022-12-19T08:07:42.286Z,101423.00
2022-12-19T08:10:11.465Z,101418.19
2022-12-19T08:12:38.382Z,101422.69
2022-12-19T08:15:06.155Z,101405.81
2022-12-19T08:17:34.588Z,101407.25
2022-12-19T08:20:01.235Z,101404.38
2022-12-19T08:22:30.370Z,101402.47
2022-12-19T08:24:57.826Z,101402.00
2022-12-19T08:27:25.038Z,101402.03
2022-12-19T08:29:51.701Z,101392.94
2022-12-19T08:32:21.201Z,101381.28
2022-12-19T08:34:48.682Z,101384.41
2022-12-19T08:37:15.338Z,101376.69
2022-12-19T08:39:41.948Z,101380.41
2022-12-19T08:42:08.557Z,101372.88
2022-12-19T08:44:35.167Z,101370.97
2022-12-19T08:47:02.818Z,101370.41
2022-12-19T08:49:29.431Z,101372.19
2022-12-19T08:51:56.106Z,101377.06
2022-12-19T08:54:23.149Z,101366.91
2022-12-19T08:56:49.821Z,101363.47
2022-12-19T08:59:22.204Z,101377.34
2022-12-19T09:01:57.639Z,101374.81
2022-12-19T09:05:45.197Z,101375.66
2022-12-19T09:07:11.159Z,101365.88
2022-12-19T09:09:41.726Z,101372.97
2022-12-19T09:12:08.322Z,101385.53
2022-12-19T09:14:35.849Z,101374.44
2022-12-19T09:17:03.355Z,101361.59
2022-12-19T09:19:31.977Z,101374.47
2022-12-19T09:21:59.338Z,101358.78
2022-12-19T09:24:26.400Z,101361.03
2022-12-19T09:26:53.258Z,101364.78
2022-12-19T09:29:23.073Z,101361.81
2022-12-19T09:31:56.519Z,101354.94
2022-12-19T09:34:37.771Z,101351.53
2022-12-19T09:37:11.657Z,101342.44
2022-12-19T09:39:43.127Z,101344.44
2022-12-19T09:42:41.395Z,101347.56
2022-12-19T09:45:40.504Z,101336.56
2022-12-19T09:48:17.789Z,101333.00
2022-12-19T09:51:09.486Z,101325.75
2022-12-19T09:53:54.095Z,101317.84
2022-12-19T09:56:23.719Z,101318.25
2022-12-19T09:58:57.225Z,101313.84
2022-12-19T10:01:30.723Z,101310.19
2022-12-19T10:04:08.977Z,101301.09
2022-12-19T10:07:22.062Z,101307.06
2022-12-19T10:10:14.603Z,101299.72
2022-12-19T10:12:44.784Z,101302.41
2022-12-19T10:15:25.645Z,101296.47
2022-12-19T10:18:01.070Z,101279.50
2022-12-19T10:20:34.219Z,101270.31
2022-12-19T10:23:19.042Z,101266.44
2022-12-19T10:25:54.636Z,101262.78
2022-12-19T10:28:27.044Z,101258.75
2022-12-19T10:31:20.975Z,101256.00
2022-12-19T10:34:15.289Z,101258.31
2022-12-19T10:39:55.305Z,101257.38
2022-12-19T10:42:40.168Z,101248.28
2022-12-19T10:45:15.124Z,101248.00
2022-12-19T10:47:42.647Z,101247.28
2022-12-19T10:50:14.372Z,101239.53
2022-12-19T10:53:04.280Z,101236.59
2022-12-19T10:55:41.005Z,101226.56
2022-12-19T10:58:35.196Z,101237.03
2022-12-19T11:01:28.196Z,101228.50
2022-12-19T11:04:13.816Z,101233.16
2022-12-19T11:06:46.505Z,101234.47
2022-12-19T11:09:31.413Z,101232.66
2022-12-19T11:15:25.424Z,101212.72
2022-12-19T11:21:07.788Z,101208.75
2022-12-19T11:26:08.319Z,101197.81
2022-12-19T11:29:34.321Z,101190.94
2022-12-19T11:29:45.548Z,101202.06
2022-12-19T11:30:46.946Z,101182.03
2022-12-19T11:33:22.130Z,101173.25
2022-12-19T11:35:52.555Z,101165.72
2022-12-19T11:38:42.513Z,101163.88
2022-12-19T11:41:17.471Z,101162.31
2022-12-19T11:43:55.902Z,101151.59
2022-12-19T11:46:42.918Z,101157.38
2022-12-19T11:49:28.907Z,101155.09
2022-12-19T11:52:23.710Z,101145.19
2022-12-19T11:55:06.200Z,101134.44
2022-12-19T11:57:33.061Z,101141.63
2022-12-19T12:00:04.675Z,101124.19
2022-12-19T12:02:58.876Z,101124.75
2022-12-19T12:05:49.483Z,101118.56
2022-12-19T12:10:22.893Z,101114.38
2022-12-19T12:15:50.503Z,101119.41
2022-12-19T12:27:48.181Z,101118.03
2022-12-19T12:29:22.899Z,101135.34
2022-12-19T12:31:09.795Z,101129.13
2022-12-19T12:31:17.510Z,101126.25
2022-12-19T12:31:26.820Z,101132.22
2022-12-19T12:31:55.325Z,101134.25
2022-12-19T12:35:33.274Z,101131.75
2022-12-19T12:39:25.431Z,101112.25
2022-12-19T12:42:13.658Z,101105.47
2022-12-19T12:44:45.832Z,101101.03
2022-12-19T12:47:33.733Z,101109.03
2022-12-19T12:50:05.598Z,101091.16
2022-12-19T12:52:46.000Z,101077.84
2022-12-19T12:55:45.743Z,101081.06
2022-12-19T12:58:43.377Z,101055.34
2022-12-19T13:01:17.604Z,101045.41
2022-12-19T13:03:55.212Z,101051.81
2022-12-19T13:06:32.292Z,101064.56
2022-12-19T13:09:09.900Z,101061.97
2022-12-19T13:11:58.571Z,101051.25
2022-12-19T13:14:36.845Z,101050.63
2022-12-19T13:17:19.441Z,101053.63
2022-12-19T13:20:14.760Z,101059.50
2022-12-19T13:22:43.318Z,101077.53
2022-12-19T13:25:49.630Z,101058.28
2022-12-19T13:28:22.125Z,101059.94
2022-12-19T13:31:19.372Z,101065.59
2022-12-19T13:33:51.764Z,101071.31
2022-12-19T13:39:56.170Z,101074.47
2022-12-19T13:40:08.683Z,101086.34
2022-12-19T13:43:10.860Z,101073.84
2022-12-19T13:45:41.548Z,101059.03
2022-12-19T13:48:17.222Z,101066.19
2022-12-19T13:50:48.012Z,101057.44
2022-12-19T13:53:18.478Z,101044.94
2022-12-19T13:55:45.444Z,101048.44
2022-12-19T13:58:29.432Z,101055.25
2022-12-19T14:01:01.366Z,101044.78
2022-12-19T14:03:47.657Z,101040.16
2022-12-19T14:06:24.115Z,101046.22
2022-12-19T14:09:37.377Z,101044.25
2022-12-19T14:13:44.018Z,101034.69
2022-12-19T14:15:02.714Z,101041.56
2022-12-19T14:17:38.739Z,101033.63
2022-12-19T14:22:02.675Z,101039.69
2022-12-19T14:23:10.681Z,101041.25
2022-12-19T14:28:14.182Z,101042.91
2022-12-19T14:29:04.506Z,101054.09
2022-12-19T14:31:33.221Z,101050.50
2022-12-19T14:36:53.301Z,101044.38
2022-12-19T14:39:28.776Z,101042.56
2022-12-19T14:43:55.756Z,101042.50
2022-12-19T14:54:06.173Z,101041.31
2022-12-19T14:54:15.327Z,101042.31
2022-12-19T14:54:23.894Z,101044.00
2022-12-19T14:57:25.586Z,101039.53
2022-12-19T15:01:10.314Z,101036.03
2022-12-19T15:03:25.128Z,101026.31
2022-12-19T15:05:53.223Z,101016.69
2022-12-19T15:10:08.822Z,101026.84
2022-12-19T15:11:51.294Z,101016.50
2022-12-19T15:14:51.501Z,101006.78
2022-12-19T15:17:23.605Z,101004.00
2022-12-19T15:19:51.343Z,101010.09
2022-12-19T15:22:18.802Z,101008.13
2022-12-19T15:24:45.602Z,101016.84
2022-12-19T15:27:17.105Z,101016.78
2022-12-19T15:29:44.691Z,101010.81
2022-12-19T15:32:14.973Z,101008.22
2022-12-19T15:34:50.471Z,101006.59
2022-12-19T15:37:18.437Z,101004.09
2022-12-19T15:39:45.693Z,100997.16
2022-12-19T15:42:24.966Z,100997.31
2022-12-19T15:44:53.575Z,100998.03
2022-12-19T15:47:29.863Z,100989.28
2022-12-19T15:49:58.279Z,100978.03
2022-12-19T15:52:25.777Z,100987.69
2022-12-19T15:54:52.525Z,100976.44
2022-12-19T15:57:48.186Z,100973.94
2022-12-19T16:00:19.601Z,100976.81
2022-12-19T16:05:34.447Z,100978.47
2022-12-19T16:08:01.125Z,100964.63
2022-12-19T16:10:27.809Z,100950.72
2022-12-19T16:12:58.345Z,100946.44
2022-12-19T16:15:28.224Z,100948.16
2022-12-19T16:17:57.546Z,100938.75
2022-12-19T16:20:29.883Z,100948.16
2022-12-19T16:22:56.938Z,100940.38
2022-12-19T16:25:33.928Z,100935.19
2022-12-19T16:28:01.882Z,100939.66
2022-12-19T16:30:32.675Z,100940.56
2022-12-19T16:32:59.688Z,100943.19
2022-12-19T16:36:02.347Z,100938.13
2022-12-19T16:38:16.149Z,100945.88
2022-12-19T16:40:43.332Z,100959.81
2022-12-19T16:43:28.630Z,100948.56
2022-12-19T16:46:00.575Z,100945.97
2022-12-19T16:48:31.488Z,100935.72
2022-12-19T16:50:59.196Z,100940.06
2022-12-19T16:53:25.973Z,100943.56
2022-12-19T16:55:54.162Z,100934.09
2022-12-19T16:58:23.833Z,100934.09
2022-12-19T17:00:53.101Z,100937.66
2022-12-19T17:03:37.367Z,100937.75
2022-12-19T17:06:04.552Z,100930.88
2022-12-19T17:08:32.606Z,100934.44
2022-12-19T17:10:59.506Z,100938.84
2022-12-19T17:13:26.840Z,100942.47
2022-12-19T17:15:56.952Z,100933.88
2022-12-19T17:18:31.653Z,100927.97
2022-12-19T17:20:58.258Z,100935.06
2022-12-19T17:23:25.881Z,100929.97
2022-12-19T17:25:54.951Z,100918.78
2022-12-19T17:28:22.000Z,100919.84
2022-12-19T17:30:54.870Z,100918.22
2022-12-19T17:33:28.893Z,100910.56
2022-12-19T17:35:55.648Z,100910.63
2022-12-19T17:38:22.282Z,100911.59
2022-12-19T17:40:48.888Z,100903.09
2022-12-19T17:43:16.724Z,100906.75
2022-12-19T17:45:43.550Z,100898.25
2022-12-19T17:48:26.105Z,100905.03
2022-12-19T17:50:53.296Z,100898.19
2022-12-19T17:53:20.157Z,100905.13
2022-12-19T17:55:46.925Z,100911.31
2022-12-19T17:58:13.526Z,100918.25
2022-12-19T18:00:41.716Z,100914.16
2022-12-19T18:03:23.857Z,100907.97
2022-12-19T18:05:52.568Z,100922.72
2022-12-19T18:08:32.554Z,100920.94
2022-12-19T18:11:01.670Z,100920.19
2022-12-19T18:13:30.001Z,100915.75
2022-12-19T18:16:02.363Z,100910.56
2022-12-19T18:18:35.676Z,100911.47
2022-12-19T18:21:04.291Z,100902.97
2022-12-19T18:23:31.011Z,100906.44
2022-12-19T18:26:01.975Z,100899.31
2022-12-19T18:28:30.133Z,100894.75
2022-12-19T18:31:04.379Z,100892.91
2022-12-19T18:33:37.190Z,100887.56
2022-12-19T18:36:05.581Z,100884.75
2022-12-19T18:38:32.172Z,100889.00
2022-12-19T18:40:58.851Z,100886.16
2022-12-19T18:43:26.005Z,100886.97
2022-12-19T18:45:52.936Z,100892.16
2022-12-19T18:48:25.977Z,100890.38
2022-12-19T18:50:53.778Z,100887.72
2022-12-19T18:53:22.099Z,100876.53
2022-12-19T18:55:49.777Z,100879.13
2022-12-19T18:58:17.889Z,100879.94
2022-12-19T19:00:48.363Z,100872.91
2022-12-19T19:03:18.173Z,100874.59
2022-12-19T19:05:46.969Z,100874.69
2022-12-19T19:08:20.261Z,100866.00
2022-12-19T19:10:48.256Z,100867.00
2022-12-19T19:13:16.791Z,100854.03
2022-12-19T19:15:49.461Z,100853.22
2022-12-19T19:18:19.921Z,100853.31
2022-12-19T19:20:53.111Z,100852.50
2022-12-19T19:23:26.119Z,100853.31
2022-12-19T19:25:52.939Z,100855.00
2022-12-19T19:28:19.704Z,100859.41
2022-12-19T19:30:47.027Z,100868.94
2022-12-19T19:33:19.820Z,100876.78
2022-12-19T19:35:51.017Z,100867.31
2022-12-19T19:38:19.569Z,100870.06
2022-12-19T19:40:46.155Z,100852.94
2022-12-19T19:43:12.754Z,100863.47
2022-12-19T19:45:43.502Z,100870.50
2022-12-19T19:48:10.505Z,100858.50
2022-12-19T19:50:37.237Z,100856.81
2022-12-19T19:53:04.665Z,100856.97
2022-12-19T19:55:32.745Z,100858.84
2022-12-19T19:57:59.404Z,100855.69
2022-12-19T20:00:26.071Z,100861.91
2022-12-19T20:02:52.852Z,100863.72
2022-12-19T20:05:20.274Z,100869.03
2022-12-19T20:07:46.869Z,100866.53
2022-12-19T20:10:13.497Z,100862.31
2022-12-19T20:12:40.149Z,100855.44
2022-12-19T20:15:07.722Z,100848.47
2022-12-19T20:17:34.396Z,100850.09
2022-12-19T20:20:01.068Z,100844.19
2022-12-19T20:22:29.252Z,100835.50
2022-12-19T20:24:56.784Z,100837.34
2022-12-19T20:27:23.690Z,100831.47
2022-12-19T20:29:50.311Z,100826.22
2022-12-19T20:34:55.735Z,100830.50
2022-12-19T20:37:22.363Z,100828.63
2022-12-19T20:39:49.012Z,100830.41
2022-12-19T20:42:17.945Z,100829.44
2022-12-19T20:44:44.537Z,100831.06
2022-12-19T20:47:11.244Z,100831.97
2022-12-19T20:49:38.256Z,100837.94
2022-12-19T20:52:04.898Z,100836.97
2022-12-19T20:54:31.824Z,100838.66
2022-12-19T20:56:58.438Z,100836.81
2022-12-19T20:59:25.340Z,100842.16
2022-12-19T21:01:52.127Z,100840.47
2022-12-19T21:04:19.016Z,100847.34
2022-12-19T21:06:45.784Z,100848.25
2022-12-19T21:09:12.502Z,100849.94
2022-12-19T21:11:39.090Z,100834.13
2022-12-19T21:14:07.111Z,100821.25
2022-12-19T21:16:34.254Z,100821.09
2022-12-19T21:19:01.025Z,100816.72
2022-12-19T21:29:05.150Z,100806.38
2022-12-19T21:31:32.055Z,100810.72
2022-12-19T21:34:00.989Z,100804.75
2022-12-19T21:36:29.197Z,100804.81
2022-12-19T21:38:58.391Z,100800.53
2022-12-19T21:41:25.509Z,100804.75
2022-12-19T21:43:54.071Z,100800.38
2022-12-19T21:46:23.628Z,100811.47
2022-12-19T21:48:52.436Z,100821.00
2022-12-19T21:51:21.308Z,100822.66
2022-12-19T21:53:48.710Z,100811.38
2022-12-19T21:56:40.587Z,100825.16
2022-12-19T21:59:11.599Z,100825.97
2022-12-19T22:01:40.091Z,100818.94
2022-12-19T22:04:12.600Z,100818.13
2022-12-19T22:06:40.067Z,100810.34
2022-12-19T22:09:09.185Z,100805.91
2022-12-19T22:11:36.592Z,100805.00
2022-12-19T22:14:05.213Z,100800.72
2022-12-19T22:16:33.193Z,100799.81
2022-12-19T22:18:59.869Z,100794.63
2022-12-19T22:21:26.983Z,100778.28
2022-12-19T22:23:57.715Z,100783.53
2022-12-19T22:26:26.053Z,100782.66
2022-12-19T22:28:55.419Z,100785.25
2022-12-19T22:31:32.533Z,100776.66
2022-12-19T22:34:02.103Z,100780.06
2022-12-19T22:36:30.919Z,100774.00
2022-12-19T22:38:59.602Z,100770.59
2022-12-19T22:41:26.819Z,100777.53
2022-12-19T22:43:55.547Z,100783.63
2022-12-19T22:46:27.982Z,100784.44
2022-12-19T22:49:00.011Z,100777.53
2022-12-19T22:51:28.079Z,100780.13
2022-12-19T22:53:55.170Z,100775.84
2022-12-19T22:56:24.425Z,100784.59
2022-12-19T22:58:52.866Z,100785.47
2022-12-19T23:01:40.498Z,100776.00
2022-12-19T23:04:09.532Z,100785.38
2022-12-19T23:06:37.692Z,100774.16
2022-12-19T23:09:07.183Z,100769.06
2022-12-19T23:11:36.776Z,100770.66
2022-12-19T23:14:04.784Z,100768.16
2022-12-19T23:16:31.577Z,100755.19
2022-12-19T23:18:58.273Z,100742.25
2022-12-19T23:21:26.433Z,100730.13
2022-12-19T23:23:55.587Z,100744.91
2022-12-19T23:26:31.143Z,100747.50
2022-12-19T23:29:00.373Z,100751.06
2022-12-19T23:31:30.246Z,100743.38
2022-12-19T23:33:57.371Z,100738.25
2022-12-19T23:37:00.530Z,100748.72
2022-12-19T23:39:12.020Z,100742.94
2022-12-19T23:41:39.577Z,100739.63
2022-12-19T23:44:06.294Z,100737.09
2022-12-19T23:46:32.916Z,100729.50
2022-12-19T23:48:59.757Z,100720.09
2022-12-19T23:51:27.503Z,100715.88
2022-12-19T23:53:56.037Z,100721.06
2022-12-19T23:56:30.884Z,100707.16
2022-12-19T23:58:58.439Z,100714.09
